Terminal Aerodrome Forecast
Issued by NWS Twin Cities, MN

Home | Current Version | Previous Version | Graphics & Text | Print | Product List | Glossary On
Versions: 1 2 3 4 5 6 7 8 9 10
787
FTUS43 KMPX 231720
TAFEAU
TAF
KEAU 231720Z 2318/2418 05005KT P6SM SKC
     FM240000 09007KT P6SM SCT200
     FM240600 13009KT P6SM BKN200
     FM241500 15011G18KT P6SM BKN150=

USA.gov is the U.S. government's official web portal to all federal, state and local government web resources and services.